createdAt,value
2022-08-07T00:01:44.148Z,102818.28
2022-08-07T00:04:15.421Z,102815.31
2022-08-07T00:06:51.550Z,102815.28
2022-08-07T00:09:22.795Z,102816.69
2022-08-07T00:11:55.428Z,102812.03
2022-08-07T00:14:31.000Z,102800.63
2022-08-07T00:17:01.972Z,102813.81
2022-08-07T00:19:56.016Z,102803.94
2022-08-07T00:22:24.838Z,102807.53
2022-08-07T00:25:06.824Z,102799.91
2022-08-07T00:27:52.913Z,102798.38
2022-08-07T00:30:28.002Z,102799.16
2022-08-07T00:32:57.223Z,102799.91
2022-08-07T00:35:25.174Z,102791.31
2022-08-07T00:37:53.588Z,102786.66
2022-08-07T00:40:39.301Z,102786.66
2022-08-07T00:43:59.053Z,102785.72
2022-08-07T00:46:00.477Z,102780.38
2022-08-07T00:48:31.037Z,102779.00
2022-08-07T00:51:00.989Z,102785.13
2022-08-07T00:53:39.000Z,102777.38
2022-08-07T00:56:15.574Z,102778.28
2022-08-07T00:58:46.722Z,102781.34
2022-08-07T01:01:15.222Z,102773.06
2022-08-07T01:03:56.313Z,102775.41
2022-08-07T01:06:29.251Z,102774.44
2022-08-07T01:09:00.770Z,102775.84
2022-08-07T01:12:27.672Z,102786.53
2022-08-07T01:14:28.333Z,102777.94
2022-08-07T01:16:57.238Z,102771.81
2022-08-07T01:19:25.167Z,102773.84
2022-08-07T01:21:55.108Z,102763.88
2022-08-07T01:24:23.393Z,102767.47
2022-08-07T01:26:52.731Z,102764.69
2022-08-07T01:29:24.175Z,102764.19
2022-08-07T01:31:55.841Z,102763.84
2022-08-07T01:34:30.757Z,102770.31
2022-08-07T01:36:58.666Z,102766.59
2022-08-07T01:39:39.577Z,102766.13
2022-08-07T01:42:38.729Z,102765.31
2022-08-07T01:45:09.718Z,102772.09
2022-08-07T01:48:20.331Z,102765.03
2022-08-07T01:50:28.580Z,102762.31
2022-08-07T01:52:59.242Z,102760.75
2022-08-07T01:55:33.701Z,102758.53
2022-08-07T01:58:06.489Z,102747.84
2022-08-07T02:01:09.518Z,102756.25
2022-08-07T02:03:48.766Z,102755.94
2022-08-07T02:06:31.162Z,102761.13
2022-08-07T02:09:04.435Z,102757.22
2022-08-07T02:12:03.254Z,102750.53
2022-08-07T02:14:35.937Z,102758.50
2022-08-07T02:17:04.326Z,102753.47
2022-08-07T02:20:06.801Z,102753.59
2022-08-07T02:22:25.982Z,102759.00
2022-08-07T02:24:56.512Z,102755.47
2022-08-07T02:27:26.267Z,102749.38
2022-08-07T02:30:07.026Z,102746.88
2022-08-07T02:32:39.517Z,102749.25
2022-08-07T02:36:28.418Z,102750.28
2022-08-07T02:38:16.522Z,102741.31
2022-08-07T02:40:44.254Z,102743.41
2022-08-07T02:43:15.544Z,102741.41
2022-08-07T02:45:58.852Z,102749.50
2022-08-07T02:48:28.402Z,102749.50
2022-08-07T02:50:56.575Z,102742.63
2022-08-07T02:53:31.390Z,102745.16
2022-08-07T02:56:17.653Z,102737.91
2022-08-07T02:58:54.304Z,102744.31
2022-08-07T03:01:35.456Z,102744.00
2022-08-07T03:04:07.181Z,102746.38
2022-08-07T03:06:35.733Z,102746.03
2022-08-07T03:09:11.175Z,102737.63
2022-08-07T03:11:51.620Z,102731.53
2022-08-07T03:14:22.468Z,102736.25
2022-08-07T03:16:50.026Z,102740.84
2022-08-07T03:19:20.260Z,102731.56
2022-08-07T03:21:50.934Z,102735.44
2022-08-07T03:24:27.393Z,102738.47
2022-08-07T03:26:59.023Z,102735.94
2022-08-07T03:29:51.062Z,102739.13
2022-08-07T03:32:25.102Z,102739.47
2022-08-07T03:35:17.080Z,102744.03
2022-08-07T03:37:55.213Z,102730.88
2022-08-07T03:40:27.519Z,102733.63
2022-08-07T03:42:58.603Z,102737.72
2022-08-07T03:45:30.177Z,102739.38
2022-08-07T03:47:59.461Z,102742.38
2022-08-07T03:50:28.549Z,102730.25
2022-08-07T03:52:59.537Z,102730.91
2022-08-07T03:55:57.854Z,102736.50
2022-08-07T03:58:33.135Z,102741.44
2022-08-07T04:01:11.314Z,102741.81
2022-08-07T04:03:53.133Z,102746.69
2022-08-07T04:06:37.281Z,102728.47
2022-08-07T04:09:15.758Z,102730.00
2022-08-07T04:12:25.701Z,102731.66
2022-08-07T04:14:38.832Z,102734.34
2022-08-07T04:17:19.890Z,102734.69
2022-08-07T04:19:52.795Z,102743.81
2022-08-07T04:22:29.146Z,102734.69
2022-08-07T04:24:58.679Z,102742.13
2022-08-07T04:27:28.605Z,102740.09
2022-08-07T04:30:04.587Z,102740.09
2022-08-07T04:32:35.223Z,102742.44
2022-08-07T04:35:07.059Z,102749.69
2022-08-07T04:38:00.809Z,102753.91
2022-08-07T04:40:26.579Z,102757.63
2022-08-07T04:43:01.649Z,102751.22
2022-08-07T04:45:57.384Z,102749.63
2022-08-07T04:49:01.852Z,102752.69
2022-08-07T04:51:41.309Z,102755.38
2022-08-07T04:54:33.390Z,102748.59
2022-08-07T04:58:11.698Z,102760.56
2022-08-07T05:00:32.752Z,102769.31
2022-08-07T05:03:59.577Z,102759.88
2022-08-07T05:06:28.082Z,102758.50
2022-08-07T05:09:09.620Z,102746.69
2022-08-07T05:11:58.884Z,102756.13
2022-08-07T05:14:55.860Z,102756.47
2022-08-07T05:17:52.804Z,102761.50
2022-08-07T05:20:18.182Z,102757.44
2022-08-07T05:22:48.082Z,102760.63
2022-08-07T05:25:26.296Z,102762.75
2022-08-07T05:28:20.318Z,102755.81
2022-08-07T05:30:52.689Z,102758.66
2022-08-07T05:33:21.558Z,102769.09
2022-08-07T05:35:51.625Z,102772.78
2022-08-07T05:39:00.108Z,102769.34
2022-08-07T05:41:14.202Z,102767.81
2022-08-07T05:44:08.430Z,102765.88
2022-08-07T05:46:36.238Z,102767.03
2022-08-07T05:49:12.157Z,102762.72
2022-08-07T05:51:43.324Z,102746.63
2022-08-07T05:54:30.675Z,102756.47
2022-08-07T05:56:59.316Z,102757.41
2022-08-07T05:59:27.982Z,102763.06
2022-08-07T06:01:59.361Z,102766.50
2022-08-07T06:04:29.931Z,102772.84
2022-08-07T06:07:03.812Z,102774.34
2022-08-07T06:10:04.333Z,102775.13
2022-08-07T06:12:21.074Z,102773.38
2022-08-07T06:14:55.100Z,102766.66
2022-08-07T06:17:37.744Z,102766.19
2022-08-07T06:20:12.854Z,102765.31
2022-08-07T06:23:02.226Z,102761.00
2022-08-07T06:25:54.824Z,102763.50
2022-08-07T06:28:27.670Z,102773.59
2022-08-07T06:30:56.283Z,102769.88
2022-08-07T06:33:26.374Z,102771.38
2022-08-07T06:36:12.378Z,102771.97
2022-08-07T06:38:58.673Z,102764.06
2022-08-07T06:42:00.716Z,102768.56
2022-08-07T06:44:34.147Z,102768.38
2022-08-07T06:47:12.644Z,102761.16
2022-08-07T06:49:52.450Z,102760.13
2022-08-07T06:52:35.723Z,102764.56
2022-08-07T06:55:33.209Z,102765.59
2022-08-07T06:58:04.516Z,102758.03
2022-08-07T07:00:42.374Z,102761.63
2022-08-07T07:03:13.605Z,102758.03
2022-08-07T07:06:02.626Z,102757.06
2022-08-07T07:08:31.122Z,102757.69
2022-08-07T07:11:01.216Z,102748.75
2022-08-07T07:13:58.580Z,102753.28
2022-08-07T07:16:45.069Z,102757.34
2022-08-07T07:19:57.240Z,102760.50
2022-08-07T07:22:35.870Z,102764.91
2022-08-07T07:26:31.281Z,102768.88
2022-08-07T07:28:07.828Z,102766.59
2022-08-07T07:30:57.563Z,102770.50
2022-08-07T07:33:28.480Z,102775.16
2022-08-07T07:36:05.328Z,102771.03
2022-08-07T07:38:45.879Z,102776.63
2022-08-07T07:41:16.954Z,102773.78
2022-08-07T07:44:17.320Z,102765.44
2022-08-07T07:46:54.199Z,102765.81
2022-08-07T07:50:32.962Z,102761.19
2022-08-07T07:52:19.073Z,102760.47
2022-08-07T07:54:51.494Z,102754.44
2022-08-07T07:57:52.402Z,102756.94
2022-08-07T08:00:11.299Z,102750.56
2022-08-07T08:03:05.722Z,102754.53
2022-08-07T08:05:42.893Z,102744.72
2022-08-07T08:08:35.262Z,102737.75
2022-08-07T08:11:16.526Z,102737.00
2022-08-07T08:13:54.227Z,102742.13
2022-08-07T08:16:38.504Z,102737.22
2022-08-07T08:19:17.990Z,102740.63
2022-08-07T08:22:18.164Z,102738.66
2022-08-07T08:25:24.782Z,102733.91
2022-08-07T08:28:01.731Z,102723.81
2022-08-07T08:30:34.508Z,102728.94
2022-08-07T08:33:10.357Z,102725.50
2022-08-07T08:35:49.665Z,102729.75
2022-08-07T08:38:29.528Z,102729.81
2022-08-07T08:41:57.146Z,102722.72
2022-08-07T08:44:44.630Z,102726.63
2022-08-07T08:47:52.681Z,102723.88
2022-08-07T08:50:41.127Z,102721.75
2022-08-07T08:53:35.780Z,102716.72
2022-08-07T08:56:16.969Z,102723.91
2022-08-07T08:59:06.417Z,102715.38
2022-08-07T09:02:10.473Z,102722.53
2022-08-07T09:04:53.194Z,102715.34
2022-08-07T09:07:58.311Z,102715.38
2022-08-07T09:10:48.812Z,102712.59
2022-08-07T09:13:54.112Z,102707.19
2022-08-07T09:16:49.656Z,102708.63
2022-08-07T09:19:51.473Z,102701.97
2022-08-07T09:24:49.117Z,102709.41
2022-08-07T09:26:40.574Z,102706.13
2022-08-07T09:30:04.372Z,102706.84
2022-08-07T09:33:52.499Z,102711.00
2022-08-07T09:36:59.865Z,102705.19
2022-08-07T09:39:59.446Z,102708.28
2022-08-07T09:42:58.798Z,102699.13
2022-08-07T09:47:25.884Z,102692.59
2022-08-07T09:50:01.994Z,102696.13
2022-08-07T09:52:51.750Z,102693.47
2022-08-07T09:56:03.862Z,102689.59
2022-08-07T09:59:24.084Z,102682.66
2022-08-07T10:02:20.164Z,102668.09
2022-08-07T10:05:21.915Z,102682.97
2022-08-07T10:08:44.193Z,102677.59
2022-08-07T10:12:01.012Z,102679.78
2022-08-07T10:15:26.072Z,102675.91
2022-08-07T10:18:41.553Z,102671.88
2022-08-07T10:22:14.942Z,102660.38
2022-08-07T10:25:16.232Z,102655.34
2022-08-07T10:28:31.020Z,102648.88
2022-08-07T10:31:38.821Z,102653.22
2022-08-07T10:34:31.996Z,102649.38
2022-08-07T10:37:48.358Z,102642.06
2022-08-07T10:40:40.314Z,102645.91
2022-08-07T10:43:34.899Z,102642.06
2022-08-07T10:46:13.153Z,102635.16
2022-08-07T10:48:51.129Z,102640.94
2022-08-07T10:52:01.971Z,102638.97
2022-08-07T10:55:01.374Z,102627.09
2022-08-07T10:57:56.123Z,102630.97
2022-08-07T11:00:36.460Z,102623.06
2022-08-07T11:03:14.920Z,102611.84
2022-08-07T11:06:15.737Z,102612.00
2022-08-07T11:09:11.517Z,102608.44
2022-08-07T11:12:11.796Z,102602.94
2022-08-07T11:14:57.461Z,102606.63
2022-08-07T11:17:55.147Z,102597.84
2022-08-07T11:20:40.552Z,102596.41
2022-08-07T11:23:36.474Z,102591.28
2022-08-07T11:26:22.059Z,102594.00
2022-08-07T11:29:05.743Z,102591.78
2022-08-07T11:32:15.397Z,102586.97
2022-08-07T11:35:02.452Z,102595.56
2022-08-07T11:37:58.232Z,102591.38
2022-08-07T11:40:56.260Z,102588.03
2022-08-07T11:44:11.921Z,102587.41
2022-08-07T11:47:21.158Z,102577.97
2022-08-07T11:50:44.561Z,102574.53
2022-08-07T11:54:10.101Z,102579.06
2022-08-07T11:56:56.276Z,102568.63
2022-08-07T12:00:19.181Z,102568.09
2022-08-07T12:03:42.198Z,102560.50
2022-08-07T12:07:08.977Z,102555.16
2022-08-07T12:10:05.761Z,102563.44
2022-08-07T12:12:42.803Z,102558.03
2022-08-07T12:15:58.080Z,102560.03
2022-08-07T12:18:38.389Z,102557.00
2022-08-07T12:21:56.073Z,102561.56
2022-08-07T12:25:11.312Z,102563.56
2022-08-07T12:28:10.293Z,102560.13
2022-08-07T12:30:46.984Z,102570.25
2022-08-07T12:33:30.860Z,102564.63
2022-08-07T12:36:17.721Z,102560.03
2022-08-07T12:39:03.287Z,102558.66
2022-08-07T12:41:52.809Z,102558.84
2022-08-07T12:44:21.319Z,102552.59
2022-08-07T12:47:30.801Z,102553.69
2022-08-07T12:50:49.071Z,102548.69
2022-08-07T12:54:02.831Z,102545.94
2022-08-07T12:56:50.989Z,102548.97
2022-08-07T12:59:33.299Z,102550.38
2022-08-07T13:02:49.634Z,102548.44
2022-08-07T13:06:03.795Z,102552.56
2022-08-07T13:08:52.130Z,102545.97
2022-08-07T13:12:15.238Z,102549.31
2022-08-07T13:15:23.791Z,102540.97
2022-08-07T13:18:39.204Z,102548.13
2022-08-07T13:21:37.216Z,102540.41
2022-08-07T13:24:30.757Z,102537.16
2022-08-07T13:28:12.459Z,102535.72
2022-08-07T13:30:40.439Z,102539.31
2022-08-07T13:34:34.325Z,102528.25
2022-08-07T13:36:39.889Z,102521.63
2022-08-07T13:39:28.693Z,102522.19
2022-08-07T13:42:14.471Z,102526.84
2022-08-07T13:44:55.340Z,102522.13
2022-08-07T13:48:08.021Z,102515.00
2022-08-07T13:50:33.527Z,102514.97
2022-08-07T13:53:59.376Z,102515.28
2022-08-07T13:56:36.000Z,102512.50
2022-08-07T13:59:12.823Z,102530.41
2022-08-07T14:02:04.655Z,102521.81
2022-08-07T14:04:48.879Z,102512.16
2022-08-07T14:07:26.007Z,102519.88
2022-08-07T14:10:01.490Z,102517.97
2022-08-07T14:13:00.669Z,102512.47
2022-08-07T14:15:44.127Z,102517.13
2022-08-07T14:18:30.415Z,102516.50
2022-08-07T14:22:02.283Z,102519.75
2022-08-07T14:24:35.577Z,102516.25
2022-08-07T14:28:10.465Z,102518.66
2022-08-07T14:30:32.769Z,102514.56
2022-08-07T14:33:04.729Z,102519.66
2022-08-07T14:35:42.953Z,102524.78
2022-08-07T14:38:24.708Z,102514.50
2022-08-07T14:41:04.107Z,102515.78
2022-08-07T14:43:55.302Z,102521.56
2022-08-07T14:46:31.403Z,102518.53
2022-08-07T14:49:57.629Z,102520.56
2022-08-07T14:54:43.088Z,102512.09
2022-08-07T15:00:06.788Z,102503.13
2022-08-07T15:02:37.312Z,102505.25
2022-08-07T15:05:19.685Z,102510.00
2022-08-07T15:10:41.853Z,102504.19
2022-08-07T15:13:35.913Z,102499.53
2022-08-07T15:16:10.921Z,102501.25
2022-08-07T15:18:46.364Z,102508.09
2022-08-07T15:25:16.236Z,102500.09
2022-08-07T15:27:30.828Z,102494.56
2022-08-07T15:33:03.934Z,102499.19
2022-08-07T15:38:58.972Z,102486.41
2022-08-07T15:44:23.567Z,102477.47
2022-08-07T15:50:04.436Z,102479.97
2022-08-07T15:52:38.698Z,102487.47
2022-08-07T15:55:12.969Z,102479.53
2022-08-07T15:57:48.804Z,102481.03
2022-08-07T16:00:31.418Z,102473.56
2022-08-07T16:03:21.861Z,102467.47
2022-08-07T16:06:07.367Z,102476.00
2022-08-07T16:08:45.691Z,102466.41
2022-08-07T16:11:42.725Z,102460.31
2022-08-07T16:14:36.859Z,102463.63
2022-08-07T16:18:02.952Z,102459.16
2022-08-07T16:20:55.148Z,102465.13
2022-08-07T16:23:53.632Z,102465.84
2022-08-07T16:26:59.181Z,102458.22
2022-08-07T16:30:09.968Z,102468.53
2022-08-07T16:32:54.513Z,102473.47
2022-08-07T16:35:56.739Z,102470.75
2022-08-07T16:39:02.281Z,102470.34
2022-08-07T16:42:04.350Z,102470.22
2022-08-07T16:45:14.851Z,102473.88
2022-08-07T16:48:03.307Z,102467.97
2022-08-07T16:51:22.652Z,102470.50
2022-08-07T16:54:09.076Z,102460.50
2022-08-07T16:56:55.164Z,102465.56
2022-08-07T16:59:46.236Z,102469.50
2022-08-07T17:02:56.037Z,102464.94
2022-08-07T17:06:28.773Z,102463.59
2022-08-07T17:10:07.008Z,102465.59
2022-08-07T17:12:44.730Z,102468.53
2022-08-07T17:15:15.491Z,102468.22
2022-08-07T17:17:48.397Z,102473.78
2022-08-07T17:20:41.787Z,102470.88
2022-08-07T17:23:34.614Z,102465.03
2022-08-07T17:26:30.019Z,102460.72
2022-08-07T17:29:04.960Z,102458.63
2022-08-07T17:32:03.064Z,102468.38
2022-08-07T17:35:32.796Z,102465.47
2022-08-07T17:38:05.942Z,102467.13
2022-08-07T17:42:00.679Z,102463.75
2022-08-07T17:44:06.601Z,102469.06
2022-08-07T17:46:52.606Z,102475.91
2022-08-07T17:49:59.228Z,102472.81
2022-08-07T17:52:39.781Z,102470.22
2022-08-07T17:55:54.732Z,102470.72
2022-08-07T17:58:09.398Z,102465.41
2022-08-07T18:00:49.116Z,102472.63
2022-08-07T18:04:04.537Z,102470.00
2022-08-07T18:06:43.248Z,102468.44
2022-08-07T18:09:48.303Z,102475.47
2022-08-07T18:12:49.607Z,102478.13
2022-08-07T18:15:33.031Z,102477.53
2022-08-07T18:19:02.400Z,102480.06
2022-08-07T18:22:00.440Z,102485.00
2022-08-07T18:24:52.595Z,102484.16
2022-08-07T18:27:47.758Z,102473.81
2022-08-07T18:30:36.756Z,102479.47
2022-08-07T18:33:36.468Z,102482.34
2022-08-07T18:36:08.005Z,102486.88
2022-08-07T18:40:05.303Z,102492.22
2022-08-07T18:42:19.905Z,102495.81
2022-08-07T18:45:43.597Z,102498.56
2022-08-07T18:49:03.654Z,102496.06
2022-08-07T18:52:34.748Z,102494.50
2022-08-07T18:54:49.763Z,102498.78
2022-08-07T18:58:01.359Z,102505.13
2022-08-07T19:00:54.197Z,102496.69
2022-08-07T19:03:40.346Z,102495.97
2022-08-07T19:06:48.493Z,102510.25
2022-08-07T19:09:56.352Z,102509.53
2022-08-07T19:12:58.278Z,102509.53
2022-08-07T19:16:05.024Z,102509.28
2022-08-07T19:19:07.177Z,102507.13
2022-08-07T19:22:11.196Z,102505.47
2022-08-07T19:24:48.803Z,102512.13
2022-08-07T19:28:58.268Z,102515.31
2022-08-07T19:31:03.675Z,102518.22
2022-08-07T19:33:10.034Z,102525.44
2022-08-07T19:35:46.959Z,102520.69
2022-08-07T19:38:17.903Z,102528.13
2022-08-07T19:40:49.689Z,102531.69
2022-08-07T19:43:45.579Z,102545.06
2022-08-07T19:46:19.367Z,102548.72
2022-08-07T19:49:02.679Z,102537.31
2022-08-07T19:51:50.789Z,102546.59
2022-08-07T19:54:33.900Z,102553.88
2022-08-07T19:57:59.983Z,102554.41
2022-08-07T20:00:10.547Z,102558.28
2022-08-07T20:02:51.517Z,102560.88
2022-08-07T20:05:30.930Z,102558.00
2022-08-07T20:08:24.174Z,102556.75
2022-08-07T20:11:10.504Z,102556.44
2022-08-07T20:13:56.295Z,102558.94
2022-08-07T20:16:34.800Z,102556.94
2022-08-07T20:19:06.099Z,102564.97
2022-08-07T20:21:47.574Z,102575.94
2022-08-07T20:24:30.072Z,102568.81
2022-08-07T20:27:02.513Z,102566.84
2022-08-07T20:29:49.323Z,102568.75
2022-08-07T20:32:40.076Z,102570.25
2022-08-07T20:35:26.520Z,102574.47
2022-08-07T20:37:58.656Z,102574.53
2022-08-07T20:40:34.933Z,102567.66
2022-08-07T20:43:09.692Z,102575.84
2022-08-07T20:46:26.516Z,102575.50
2022-08-07T20:48:36.199Z,102571.56
2022-08-07T20:51:09.597Z,102573.03
2022-08-07T20:54:02.992Z,102566.84
2022-08-07T20:56:30.727Z,102562.25
2022-08-07T20:59:05.777Z,102569.59
2022-08-07T21:01:45.272Z,102568.38
2022-08-07T21:04:27.161Z,102571.13
2022-08-07T21:07:04.114Z,102572.41
2022-08-07T21:09:51.685Z,102574.50
2022-08-07T21:12:26.112Z,102584.56
2022-08-07T21:15:00.900Z,102583.34
2022-08-07T21:18:03.591Z,102582.09
2022-08-07T21:20:30.302Z,102579.59
2022-08-07T21:23:09.022Z,102577.53
2022-08-07T21:26:12.348Z,102579.22
2022-08-07T21:29:12.956Z,102571.31
2022-08-07T21:32:43.906Z,102577.22
2022-08-07T21:35:34.692Z,102574.72
2022-08-07T21:38:27.572Z,102568.03
2022-08-07T21:41:11.181Z,102574.50
2022-08-07T21:43:56.851Z,102569.69
2022-08-07T21:46:41.907Z,102568.03
2022-08-07T21:49:40.531Z,102570.78
2022-08-07T21:53:07.808Z,102577.94
2022-08-07T21:56:35.693Z,102569.97
2022-08-07T21:59:15.998Z,102579.81
2022-08-07T22:02:11.223Z,102578.78
2022-08-07T22:04:53.454Z,102581.72
2022-08-07T22:07:31.907Z,102585.69
2022-08-07T22:10:20.026Z,102578.81
2022-08-07T22:12:58.669Z,102581.94
2022-08-07T22:16:41.421Z,102584.03
2022-08-07T22:18:53.220Z,102588.66
2022-08-07T22:22:04.805Z,102589.50
2022-08-07T22:24:32.692Z,102585.94
2022-08-07T22:27:17.264Z,102591.38
2022-08-07T22:30:03.100Z,102595.97
2022-08-07T22:32:56.419Z,102593.28
2022-08-07T22:35:39.777Z,102597.88
2022-08-07T22:38:49.742Z,102592.44
2022-08-07T22:42:03.212Z,102597.03
2022-08-07T22:44:26.317Z,102600.59
2022-08-07T22:47:20.989Z,102607.50
2022-08-07T22:50:20.646Z,102603.72
2022-08-07T22:54:06.355Z,102603.91
2022-08-07T22:56:37.963Z,102604.56
2022-08-07T23:00:04.951Z,102609.56
2022-08-07T23:02:50.384Z,102613.31
2022-08-07T23:06:08.767Z,102614.56
2022-08-07T23:10:01.022Z,102615.81
2022-08-07T23:12:34.126Z,102621.66
2022-08-07T23:16:05.609Z,102620.78
2022-08-07T23:19:14.428Z,102613.63
2022-08-07T23:22:02.912Z,102614.03
2022-08-07T23:24:57.155Z,102615.31
2022-08-07T23:28:22.647Z,102616.94
2022-08-07T23:32:48.697Z,102622.56
2022-08-07T23:34:49.941Z,102619.84
2022-08-07T23:38:00.277Z,102614.19
2022-08-07T23:40:49.173Z,102610.63
2022-08-07T23:43:38.835Z,102611.03
2022-08-07T23:46:31.107Z,102617.47
2022-08-07T23:49:50.745Z,102619.13
2022-08-07T23:53:08.925Z,102621.41
2022-08-07T23:55:55.561Z,102623.28
2022-08-07T23:58:37.245Z,102618.84
